createdAt,value
2018-11-22T12:17:27.538Z,4.39
2018-11-22T12:22:30.007Z,4.48
2018-11-22T12:27:32.457Z,4.40
2018-11-22T12:32:39.461Z,4.47
2018-11-22T12:37:46.884Z,4.38
2018-11-22T12:42:49.820Z,4.48
2018-11-22T12:47:52.233Z,4.59
2018-11-22T12:52:54.661Z,4.68
2018-11-22T12:57:57.041Z,4.56
2018-11-22T13:02:59.431Z,4.77
2018-11-22T13:08:01.990Z,4.73
2018-11-22T13:13:04.771Z,4.74
2018-11-22T13:18:07.249Z,4.63
2018-11-22T13:23:09.881Z,4.60
2018-11-22T13:28:12.274Z,4.76
2018-11-22T13:33:14.817Z,4.74
2018-11-22T13:38:17.228Z,4.97
2018-11-22T13:43:19.715Z,4.90
2018-11-22T13:48:22.403Z,4.74
2018-11-22T13:53:24.883Z,5.08
2018-11-22T13:58:27.340Z,5.05
2018-11-22T14:03:29.787Z,5.02
2018-11-22T14:08:32.271Z,5.16
2018-11-22T14:13:34.653Z,5.08
2018-11-22T14:18:37.335Z,5.16
2018-11-22T14:23:40.917Z,4.78
2018-11-22T14:28:43.285Z,4.58
2018-11-22T14:33:45.691Z,4.51
2018-11-22T14:38:48.101Z,4.48
2018-11-22T14:43:50.495Z,4.37
2018-11-22T14:48:53.770Z,4.30
2018-11-22T14:53:55.768Z,4.20
2018-11-22T14:58:58.291Z,4.10
2018-11-22T15:04:00.805Z,3.98
2018-11-22T15:09:05.638Z,3.95
2018-11-22T15:14:08.182Z,3.94
2018-11-22T15:19:10.572Z,3.93
2018-11-22T15:24:13.221Z,3.86
2018-11-22T15:29:15.645Z,3.78
2018-11-22T15:34:18.027Z,3.66
2018-11-22T15:39:20.380Z,3.70
2018-11-22T15:44:23.042Z,3.68
2018-11-22T15:49:25.533Z,3.64
2018-11-22T15:54:27.887Z,3.52
2018-11-22T15:59:31.138Z,3.48
2018-11-22T16:04:33.605Z,3.44
2018-11-22T16:09:35.953Z,3.42
2018-11-22T16:14:38.437Z,3.43
2018-11-22T16:19:41.057Z,3.35
2018-11-22T16:24:43.495Z,3.13
2018-11-22T16:29:45.899Z,3.04
2018-11-22T16:34:49.683Z,2.86
2018-11-22T16:39:54.202Z,2.96
2018-11-22T16:44:56.986Z,2.84
2018-11-22T16:50:06.053Z,2.88
2018-11-22T16:55:09.126Z,2.78
2018-11-22T17:00:20.226Z,2.72
2018-11-22T17:05:23.783Z,2.60
2018-11-22T17:10:29.861Z,2.56
2018-11-22T17:15:35.717Z,2.59
2018-11-22T17:20:38.405Z,2.57
2018-11-22T17:25:40.841Z,2.51
2018-11-22T17:30:44.376Z,2.53
2018-11-22T17:35:47.032Z,2.53
2018-11-22T17:40:50.948Z,2.50
2018-11-22T17:45:54.064Z,2.49
2018-11-22T17:50:56.479Z,2.48
2018-11-22T17:55:59.101Z,2.49
2018-11-22T18:01:01.662Z,2.47
2018-11-22T18:06:04.306Z,2.46
2018-11-22T18:11:06.781Z,2.40
2018-11-22T18:16:09.478Z,2.41
2018-11-22T18:21:12.042Z,2.37
2018-11-22T18:26:14.494Z,2.24
2018-11-22T18:31:17.058Z,2.25
2018-11-22T18:36:20.054Z,2.21
2018-11-22T18:41:22.427Z,2.25
2018-11-22T18:46:25.517Z,2.25
2018-11-22T18:51:28.217Z,2.21
2018-11-22T18:56:36.862Z,2.23
2018-11-22T19:01:33.569Z,2.20
2018-11-22T19:06:36.336Z,2.20
2018-11-22T19:11:38.959Z,2.18
2018-11-22T19:16:41.368Z,2.18
2018-11-22T19:21:43.833Z,2.10
2018-11-22T19:26:46.277Z,2.05
2018-11-22T19:31:48.787Z,2.04
2018-11-22T19:36:51.222Z,2.07
2018-11-22T19:41:54.101Z,2.00
2018-11-22T19:46:56.769Z,2.05
2018-11-22T19:51:59.390Z,2.01
2018-11-22T19:57:01.817Z,2.00
2018-11-22T20:02:05.008Z,2.02
2018-11-22T20:07:07.430Z,1.92
2018-11-22T20:12:11.528Z,1.92
2018-11-22T20:17:14.589Z,1.89
2018-11-22T20:22:17.411Z,1.88
2018-11-22T20:27:19.967Z,1.81
2018-11-22T20:32:22.609Z,1.78
2018-11-22T20:37:25.030Z,1.74
2018-11-22T20:42:27.598Z,1.69
2018-11-22T20:47:30.392Z,1.69
2018-11-22T20:52:33.445Z,1.62
2018-11-22T20:57:36.477Z,1.62
2018-11-22T21:02:38.926Z,1.61
2018-11-22T21:07:42.290Z,1.55
2018-11-22T21:12:45.367Z,1.40
2018-11-22T21:17:49.250Z,1.26
2018-11-22T21:22:51.939Z,1.36
2018-11-22T21:27:54.381Z,1.18
2018-11-22T21:32:57.847Z,1.06
2018-11-22T21:38:01.173Z,1.15
2018-11-22T21:43:03.874Z,1.12
2018-11-22T21:48:06.269Z,1.06
2018-11-22T21:53:08.787Z,0.98
2018-11-22T21:58:11.258Z,0.94
2018-11-22T22:03:13.725Z,1.03
2018-11-22T22:08:16.120Z,1.00
2018-11-22T22:13:18.709Z,0.99
2018-11-22T22:18:21.407Z,1.06
2018-11-22T22:23:23.772Z,1.07
2018-11-22T22:28:26.142Z,1.17
2018-11-22T22:33:28.677Z,1.14
2018-11-22T22:38:31.082Z,1.12
2018-11-22T22:43:33.597Z,1.02
2018-11-22T22:48:36.104Z,0.99
2018-11-22T22:53:38.571Z,0.97
2018-11-22T22:58:40.969Z,1.04
2018-11-22T23:03:43.784Z,1.00
2018-11-22T23:08:46.265Z,1.13
2018-11-22T23:13:48.669Z,1.16
2018-11-22T23:18:51.249Z,1.30
2018-11-22T23:23:53.726Z,1.49
2018-11-22T23:28:56.111Z,1.36
2018-11-22T23:33:58.597Z,1.45
2018-11-22T23:39:00.976Z,1.35
2018-11-22T23:44:03.457Z,1.31
2018-11-22T23:49:05.870Z,1.18
2018-11-22T23:54:08.212Z,1.07
2018-11-22T23:59:10.644Z,1.01
